createdAt,value
2023-01-03T00:00:06.285Z,10.32
2023-01-03T00:05:08.612Z,13.07
2023-01-03T00:10:11.368Z,10.20
2023-01-03T00:15:16.051Z,12.20
2023-01-03T00:20:18.211Z,11.45
2023-01-03T00:25:20.010Z,14.57
2023-01-03T00:30:22.001Z,16.75
2023-01-03T00:35:23.783Z,11.05
2023-01-03T00:40:25.551Z,7.22
2023-01-03T00:45:29.892Z,10.20
2023-01-03T00:50:37.500Z,14.23
2023-01-03T00:55:39.312Z,12.20
2023-01-03T01:00:41.127Z,14.18
2023-01-03T01:05:42.926Z,11.73
2023-01-03T01:11:02.077Z,8.85
2023-01-03T01:16:10.751Z,11.25
2023-01-03T01:21:18.196Z,11.13
2023-01-03T01:26:23.129Z,7.18
2023-01-03T01:31:26.912Z,11.43
2023-01-03T01:36:32.703Z,12.80
2023-01-03T01:41:54.766Z,11.55
2023-01-03T01:46:56.566Z,15.02
2023-01-03T01:51:58.642Z,10.10
2023-01-03T01:57:00.528Z,12.00
2023-01-03T02:02:02.549Z,10.18
2023-01-03T02:07:05.594Z,12.20
2023-01-03T02:12:38.154Z,11.07
2023-01-03T02:18:16.837Z,10.25
2023-01-03T02:23:43.577Z,10.68
2023-01-03T02:29:09.958Z,6.85
2023-01-03T02:34:49.290Z,9.73
2023-01-03T02:40:09.579Z,8.52
2023-01-03T02:45:20.407Z,13.50
2023-01-03T02:50:26.646Z,13.63
2023-01-03T02:55:32.430Z,11.73
2023-01-03T03:00:41.581Z,8.15
2023-01-03T03:05:52.991Z,10.95
2023-01-03T03:11:14.310Z,8.20
2023-01-03T03:16:18.890Z,9.93
2023-01-03T03:21:39.665Z,8.65
2023-01-03T03:31:49.386Z,8.90
2023-01-03T03:37:00.343Z,11.15
2023-01-03T03:42:33.326Z,10.20
2023-01-03T03:47:57.954Z,11.20
2023-01-03T03:53:03.802Z,10.27
2023-01-03T03:58:20.742Z,11.25
2023-01-03T04:03:24.359Z,10.48
2023-01-03T04:08:26.245Z,6.55
2023-01-03T04:13:28.047Z,10.68
2023-01-03T04:18:29.978Z,10.20
2023-01-03T04:23:31.900Z,8.25
2023-01-03T04:28:33.868Z,8.35
2023-01-03T04:33:35.708Z,9.52
2023-01-03T04:38:37.566Z,14.40
2023-01-03T04:43:57.999Z,9.63
2023-01-03T04:49:00.418Z,8.60
2023-01-03T04:54:03.000Z,14.05
2023-01-03T04:59:05.620Z,12.68
2023-01-03T05:04:08.553Z,6.30
2023-01-03T05:09:10.475Z,7.38
2023-01-03T05:14:14.513Z,14.18
2023-01-03T05:19:16.705Z,12.88
2023-01-03T05:24:56.729Z,14.32
2023-01-03T05:29:58.581Z,12.37
2023-01-03T05:35:00.339Z,20.83
2023-01-03T05:40:02.101Z,23.55
2023-01-03T05:45:04.064Z,21.73
2023-01-03T05:50:06.427Z,23.40
2023-01-03T05:55:08.702Z,24.15
2023-01-03T06:00:11.392Z,27.35
2023-01-03T06:05:13.316Z,23.92
2023-01-03T06:10:15.402Z,28.00
2023-01-03T06:15:17.230Z,25.58
2023-01-03T06:20:19.200Z,26.67
2023-01-03T06:25:21.627Z,23.67
2023-01-03T06:30:23.379Z,27.30
2023-01-03T06:35:25.143Z,26.75
2023-01-03T06:40:30.455Z,22.60
2023-01-03T06:45:56.485Z,27.02
2023-01-03T06:51:16.794Z,18.67
2023-01-03T06:56:18.651Z,18.05
2023-01-03T07:01:20.741Z,21.23
2023-01-03T07:06:22.608Z,20.67
2023-01-03T07:11:24.533Z,16.27
2023-01-03T07:16:45.826Z,18.13
2023-01-03T07:21:47.623Z,17.70
2023-01-03T07:26:49.436Z,15.35
2023-01-03T07:31:51.249Z,16.15
2023-01-03T07:36:53.156Z,14.23
2023-01-03T07:42:13.449Z,11.05
2023-01-03T07:47:15.230Z,11.88
2023-01-03T07:52:17.046Z,11.90
2023-01-03T07:57:18.869Z,12.77
2023-01-03T08:02:20.882Z,13.98
2023-01-03T08:07:22.871Z,13.40
2023-01-03T08:12:43.131Z,13.70
2023-01-03T08:17:44.893Z,15.75
2023-01-03T08:22:49.353Z,11.68
2023-01-03T08:27:51.133Z,10.15
2023-01-03T08:32:55.069Z,10.13
2023-01-03T08:37:58.797Z,13.95
2023-01-03T08:43:02.528Z,17.67
2023-01-03T08:48:06.281Z,12.40
2023-01-03T08:53:08.338Z,15.50
2023-01-03T08:58:10.160Z,12.63
2023-01-03T09:03:12.244Z,12.40
2023-01-03T09:08:14.167Z,10.43
2023-01-03T09:13:16.006Z,21.52
2023-01-03T09:18:17.811Z,14.77
2023-01-03T09:23:19.647Z,20.40
2023-01-03T09:28:21.561Z,9.73
2023-01-03T09:33:24.759Z,9.60
2023-01-03T09:38:26.561Z,15.18
2023-01-03T09:43:43.738Z,13.45
2023-01-03T09:48:46.487Z,17.75
2023-01-03T09:54:06.803Z,12.63
2023-01-03T09:59:33.224Z,12.23
2023-01-03T10:05:11.713Z,13.55
2023-01-03T10:10:30.158Z,14.15
2023-01-03T10:15:56.976Z,11.68
2023-01-03T10:21:14.851Z,12.40
2023-01-03T10:26:16.643Z,10.88
2023-01-03T10:31:26.336Z,9.20
2023-01-03T10:36:28.173Z,12.38
2023-01-03T10:41:52.356Z,13.52
2023-01-03T10:46:56.744Z,16.92
2023-01-03T10:52:04.464Z,15.13
2023-01-03T10:57:06.630Z,13.75
2023-01-03T11:02:08.601Z,12.30
2023-01-03T11:07:13.536Z,10.57
2023-01-03T11:12:28.883Z,14.00
2023-01-03T11:17:30.760Z,11.80
2023-01-03T11:22:40.196Z,11.18
2023-01-03T11:28:19.551Z,6.93
2023-01-03T11:33:46.209Z,7.25
2023-01-03T11:39:03.034Z,11.43
2023-01-03T11:44:38.295Z,5.80
2023-01-03T11:50:04.787Z,5.15
2023-01-03T11:55:25.513Z,8.80
2023-01-03T12:00:33.517Z,9.05
2023-01-03T12:06:01.791Z,9.30
2023-01-03T12:11:16.480Z,8.75
2023-01-03T12:16:58.465Z,10.25
2023-01-03T12:22:15.391Z,12.80
2023-01-03T12:27:30.690Z,11.93
2023-01-03T12:32:42.705Z,5.95
2023-01-03T12:37:47.296Z,6.35
2023-01-03T12:43:05.688Z,6.47
2023-01-03T12:48:22.881Z,7.90
2023-01-03T12:53:48.751Z,3.70
2023-01-03T12:59:30.437Z,7.28
2023-01-03T13:04:38.165Z,14.50
2023-01-03T13:09:49.753Z,6.85
2023-01-03T13:15:13.287Z,7.43
2023-01-03T13:20:15.017Z,16.30
2023-01-03T13:25:39.449Z,4.88
2023-01-03T13:30:41.271Z,8.98
2023-01-03T13:35:42.996Z,9.85
2023-01-03T13:41:17.267Z,13.07
2023-01-03T13:46:32.877Z,12.32
2023-01-03T13:51:52.570Z,8.57
2023-01-03T13:57:02.715Z,5.18
2023-01-03T14:02:09.987Z,10.15
2023-01-03T14:07:32.235Z,8.70
2023-01-03T14:12:58.536Z,4.65
2023-01-03T14:18:18.682Z,10.00
2023-01-03T14:23:57.647Z,6.07
2023-01-03T14:28:50.656Z,7.72
2023-01-03T14:34:01.163Z,11.02
2023-01-03T14:39:03.025Z,6.15
2023-01-03T14:44:16.369Z,9.13
2023-01-03T14:49:37.718Z,12.45
2023-01-03T14:54:44.962Z,8.65
2023-01-03T14:59:48.655Z,12.40
2023-01-03T15:04:56.048Z,3.17
2023-01-03T15:10:22.499Z,9.88
2023-01-03T15:15:33.841Z,8.40
2023-01-03T15:20:38.464Z,7.97
2023-01-03T15:25:41.511Z,9.32
2023-01-03T15:30:48.752Z,10.10
2023-01-03T15:35:51.591Z,13.05
2023-01-03T15:40:53.634Z,10.20
2023-01-03T15:46:11.411Z,12.95
2023-01-03T15:51:13.233Z,6.25
2023-01-03T15:56:22.369Z,8.50
2023-01-03T16:01:25.010Z,5.13
2023-01-03T16:06:26.983Z,11.25
2023-01-03T16:11:34.221Z,6.03
2023-01-03T16:16:39.801Z,13.98
2023-01-03T16:21:51.437Z,5.68
2023-01-03T16:27:17.894Z,9.30
2023-01-03T16:32:26.064Z,6.20
2023-01-03T16:37:28.850Z,6.28
2023-01-03T16:42:30.586Z,10.70
2023-01-03T16:47:35.011Z,4.45
2023-01-03T16:52:39.688Z,5.78
2023-01-03T16:57:41.544Z,12.20
2023-01-03T17:02:43.537Z,7.93
2023-01-03T17:07:48.068Z,10.55
2023-01-03T17:12:49.853Z,17.50
2023-01-03T17:17:51.627Z,9.48
2023-01-03T17:22:56.320Z,5.47
2023-01-03T17:27:59.903Z,7.75
2023-01-03T17:33:01.690Z,12.95
2023-01-03T17:38:25.213Z,8.95
2023-01-03T17:43:25.566Z,8.25
2023-01-03T17:48:45.922Z,8.45
2023-01-03T17:53:49.807Z,8.98
2023-01-03T17:58:56.248Z,9.90
2023-01-03T18:03:58.621Z,5.82
2023-01-03T18:09:03.671Z,8.88
2023-01-03T18:14:05.651Z,6.07
2023-01-03T18:19:07.561Z,15.25
2023-01-03T18:24:23.303Z,7.80
2023-01-03T18:29:25.151Z,17.55
2023-01-03T18:34:26.955Z,8.20
2023-01-03T18:39:30.057Z,9.52
2023-01-03T18:44:32.233Z,6.32
2023-01-03T18:49:34.088Z,6.05
2023-01-03T18:54:38.763Z,9.20
2023-01-03T18:59:41.231Z,6.88
2023-01-03T19:04:49.227Z,10.57
2023-01-03T19:09:53.055Z,2.90
2023-01-03T19:14:54.947Z,6.88
2023-01-03T19:19:56.805Z,9.68
2023-01-03T19:25:01.966Z,9.90
2023-01-03T19:30:13.899Z,6.03
2023-01-03T19:35:16.272Z,9.65
2023-01-03T19:40:20.874Z,5.43
2023-01-03T19:45:30.356Z,7.18
2023-01-03T19:50:34.468Z,13.27
2023-01-03T19:55:40.119Z,5.90
2023-01-03T20:00:42.118Z,6.78
2023-01-03T20:05:43.975Z,14.18
2023-01-03T20:10:46.097Z,5.07
2023-01-03T20:15:49.806Z,4.85
2023-01-03T20:20:56.397Z,6.35
2023-01-03T20:25:58.815Z,16.58
2023-01-03T20:31:01.987Z,10.93
2023-01-03T20:36:17.988Z,10.38
2023-01-03T20:41:36.578Z,5.72
2023-01-03T20:46:39.454Z,5.35
2023-01-03T20:51:41.401Z,6.93
2023-01-03T20:56:44.150Z,9.20
2023-01-03T21:01:47.770Z,4.80
2023-01-03T21:06:51.961Z,7.32
2023-01-03T21:11:53.812Z,8.77
2023-01-03T21:16:55.684Z,9.85
2023-01-03T21:21:59.252Z,7.75
2023-01-03T21:27:01.069Z,4.03
2023-01-03T21:32:03.019Z,7.60
2023-01-03T21:37:04.837Z,6.18
2023-01-03T21:42:25.272Z,14.02
2023-01-03T21:47:27.056Z,7.15
2023-01-03T21:52:29.096Z,11.80
2023-01-03T21:57:32.511Z,11.23
2023-01-03T22:02:59.487Z,6.32
2023-01-03T22:08:02.908Z,8.48
2023-01-03T22:13:07.218Z,12.35
2023-01-03T22:18:10.978Z,4.65
2023-01-03T22:23:13.195Z,10.38
2023-01-03T22:28:15.052Z,7.75
2023-01-03T22:33:16.860Z,8.60
2023-01-03T22:38:18.632Z,8.02
2023-01-03T22:43:20.460Z,4.82
2023-01-03T22:48:22.345Z,7.10
2023-01-03T22:53:24.377Z,4.30
2023-01-03T22:58:26.411Z,9.95
2023-01-03T23:03:28.293Z,7.63
2023-01-03T23:08:31.969Z,6.90
2023-01-03T23:13:35.959Z,4.22
2023-01-03T23:18:37.745Z,6.07
2023-01-03T23:23:39.785Z,4.43
2023-01-03T23:28:41.539Z,5.88
2023-01-03T23:33:43.342Z,2.83
2023-01-03T23:38:45.381Z,6.20
2023-01-03T23:43:47.543Z,6.72
2023-01-03T23:48:54.589Z,2.90
2023-01-03T23:53:56.578Z,6.72
2023-01-03T23:58:58.353Z,6.10
